createdAt,value
2018-10-21T00:00:12.110Z,15.20
2018-10-21T00:02:40.156Z,14.90
2018-10-21T00:05:09.038Z,14.87
2018-10-21T00:07:37.082Z,14.37
2018-10-21T00:10:05.985Z,15.43
2018-10-21T00:12:34.030Z,15.87
2018-10-21T00:15:02.130Z,15.30
2018-10-21T00:17:30.166Z,15.50
2018-10-21T00:19:58.202Z,15.23
2018-10-21T00:22:26.250Z,14.90
2018-10-21T00:24:54.274Z,14.33
2018-10-21T00:27:22.360Z,14.00
2018-10-21T00:29:50.426Z,14.17
2018-10-21T00:32:18.526Z,14.33
2018-10-21T00:34:46.587Z,14.33
2018-10-21T00:37:14.662Z,14.97
2018-10-21T00:39:42.730Z,14.97
2018-10-21T00:42:10.770Z,14.40
2018-10-21T00:44:38.842Z,15.33
2018-10-21T00:47:06.952Z,14.57
2018-10-21T00:49:35.041Z,14.50
2018-10-21T00:52:03.370Z,14.40
2018-10-21T00:54:31.674Z,15.10
2018-10-21T00:56:59.823Z,15.67
2018-10-21T00:59:28.219Z,14.47
2018-10-21T01:02:03.111Z,15.00
2018-10-21T01:04:31.422Z,14.40
2018-10-21T01:06:59.739Z,15.13
2018-10-21T01:09:28.103Z,15.77
2018-10-21T01:11:56.163Z,14.77
2018-10-21T01:14:24.238Z,14.80
2018-10-21T01:16:52.594Z,15.60
2018-10-21T01:19:20.655Z,14.90
2018-10-21T01:21:48.958Z,13.93
2018-10-21T01:24:17.258Z,13.47
2018-10-21T01:26:45.620Z,16.47
2018-10-21T01:29:13.951Z,15.60
2018-10-21T01:31:42.099Z,17.63
2018-10-21T01:34:10.163Z,17.57
2018-10-21T01:36:38.565Z,17.30
2018-10-21T01:39:09.065Z,16.67
2018-10-21T01:41:37.426Z,16.63
2018-10-21T01:44:05.767Z,15.57
2018-10-21T01:46:34.310Z,16.10
2018-10-21T01:49:02.684Z,15.23
2018-10-21T01:51:31.027Z,15.80
2018-10-21T01:56:34.104Z,15.57
2018-10-21T01:59:02.470Z,15.83
2018-10-21T02:01:30.792Z,14.67
2018-10-21T02:03:59.172Z,14.93
2018-10-21T02:06:27.187Z,15.23
2018-10-21T02:08:55.233Z,15.37
2018-10-21T02:11:23.280Z,15.73
2018-10-21T02:13:51.319Z,16.33
2018-10-21T02:16:19.359Z,16.83
2018-10-21T02:18:47.380Z,15.33
2018-10-21T02:21:15.471Z,15.77
2018-10-21T02:23:43.419Z,15.57
2018-10-21T02:26:11.679Z,15.70
2018-10-21T02:28:39.716Z,16.20
2018-10-21T02:31:07.760Z,15.67
2018-10-21T02:33:35.995Z,15.93
2018-10-21T02:36:03.819Z,17.40
2018-10-21T02:38:31.837Z,14.90
2018-10-21T02:41:14.416Z,16.63
2018-10-21T02:43:42.883Z,16.40
2018-10-21T02:46:10.901Z,17.50
2018-10-21T02:48:39.320Z,16.17
2018-10-21T02:51:07.602Z,16.97
2018-10-21T02:53:35.877Z,20.50
2018-10-21T02:56:04.176Z,18.90
2018-10-21T02:58:32.466Z,25.77
2018-10-21T03:01:00.748Z,16.33
2018-10-21T03:03:29.052Z,16.20
2018-10-21T03:05:57.080Z,15.37
2018-10-21T03:08:25.432Z,15.23
2018-10-21T03:10:53.696Z,14.77
2018-10-21T03:13:21.981Z,14.87
2018-10-21T03:15:50.265Z,15.10
2018-10-21T03:18:18.597Z,15.63
2018-10-21T03:20:46.889Z,15.40
2018-10-21T03:23:15.531Z,16.70
2018-10-21T03:25:44.321Z,17.83
2018-10-21T03:28:12.718Z,16.53
2018-10-21T03:30:41.017Z,18.03
2018-10-21T03:33:09.696Z,17.77
2018-10-21T03:35:37.961Z,18.07
2018-10-21T03:38:06.322Z,18.10
2018-10-21T03:40:34.586Z,17.73
2018-10-21T03:43:10.742Z,17.93
2018-10-21T03:45:39.033Z,17.23
2018-10-21T03:48:07.853Z,17.57
2018-10-21T03:50:36.141Z,18.30
2018-10-21T03:53:04.541Z,17.37
2018-10-21T03:55:36.068Z,17.07
2018-10-21T03:58:04.775Z,17.43
2018-10-21T04:00:33.048Z,16.70
2018-10-21T04:03:01.412Z,16.93
2018-10-21T04:05:29.680Z,15.80
2018-10-21T04:07:57.945Z,16.87
2018-10-21T04:10:26.208Z,16.57
2018-10-21T04:12:54.508Z,16.87
2018-10-21T04:15:22.793Z,15.17
2018-10-21T04:17:51.037Z,15.37
2018-10-21T04:20:19.313Z,15.53
2018-10-21T04:22:52.469Z,15.53
2018-10-21T04:25:21.452Z,15.60
2018-10-21T04:27:50.769Z,14.23
2018-10-21T04:30:24.636Z,16.10
2018-10-21T04:32:56.348Z,14.90
2018-10-21T04:35:25.042Z,15.23
2018-10-21T04:40:14.800Z,16.03
2018-10-21T04:42:43.488Z,15.23
2018-10-21T04:45:12.789Z,16.33
2018-10-21T04:47:41.029Z,16.37
2018-10-21T04:50:10.248Z,15.33
2018-10-21T04:52:38.509Z,16.50
2018-10-21T04:55:09.988Z,17.07
2018-10-21T04:57:39.248Z,15.90
2018-10-21T05:00:09.905Z,16.50
2018-10-21T05:02:38.171Z,16.10
2018-10-21T05:05:07.469Z,16.27
2018-10-21T05:07:35.862Z,16.43
2018-10-21T05:10:05.765Z,16.70
2018-10-21T05:12:33.978Z,16.87
2018-10-21T05:15:02.263Z,17.30
2018-10-21T05:17:30.472Z,17.90
2018-10-21T05:19:58.733Z,18.27
2018-10-21T05:22:27.021Z,16.27
2018-10-21T05:24:55.277Z,16.40
2018-10-21T05:27:23.529Z,15.90
2018-10-21T05:29:51.814Z,16.83
2018-10-21T05:32:20.090Z,16.10
2018-10-21T05:34:48.338Z,15.43
2018-10-21T05:37:16.614Z,15.73
2018-10-21T05:39:44.846Z,15.83
2018-10-21T05:42:13.093Z,16.40
2018-10-21T05:44:41.349Z,16.37
2018-10-21T05:47:09.708Z,16.17
2018-10-21T05:49:37.917Z,17.40
2018-10-21T05:52:06.445Z,17.57
2018-10-21T05:54:38.934Z,18.17
2018-10-21T05:57:07.221Z,16.67
2018-10-21T05:59:35.531Z,17.77
2018-10-21T06:02:03.834Z,18.03
2018-10-21T06:04:32.091Z,18.00
2018-10-21T06:07:00.358Z,19.27
2018-10-21T06:09:28.626Z,18.23
2018-10-21T06:11:56.638Z,19.27
2018-10-21T06:14:24.614Z,19.20
2018-10-21T06:17:55.623Z,19.90
2018-10-21T06:20:59.650Z,20.03
2018-10-21T06:23:27.953Z,20.67
2018-10-21T06:25:56.183Z,19.30
2018-10-21T06:28:24.478Z,20.10
2018-10-21T06:30:52.739Z,18.17
2018-10-21T06:33:20.987Z,18.27
2018-10-21T06:35:49.423Z,18.67
2018-10-21T06:38:17.711Z,18.83
2018-10-21T06:40:45.958Z,19.57
2018-10-21T06:43:14.230Z,18.97
2018-10-21T06:45:42.539Z,19.27
2018-10-21T06:48:10.786Z,18.57
2018-10-21T06:50:39.053Z,17.63
2018-10-21T06:53:07.323Z,18.83
2018-10-21T06:55:35.591Z,20.00
2018-10-21T06:58:03.859Z,21.57
2018-10-21T07:00:32.115Z,20.77
2018-10-21T07:03:00.431Z,19.50
2018-10-21T07:05:41.839Z,19.23
2018-10-21T07:08:10.116Z,19.20
2018-10-21T07:10:38.356Z,21.00
2018-10-21T07:13:06.627Z,20.13
2018-10-21T07:15:34.900Z,20.77
2018-10-21T07:18:03.188Z,20.27
2018-10-21T07:20:31.475Z,20.77
2018-10-21T07:22:59.727Z,19.83
2018-10-21T07:25:28.007Z,21.20
2018-10-21T07:27:56.271Z,20.80
2018-10-21T07:30:24.495Z,21.37
2018-10-21T07:32:52.896Z,21.70
2018-10-21T07:35:21.195Z,21.63
2018-10-21T07:37:49.463Z,22.53
2018-10-21T07:40:17.780Z,20.23
2018-10-21T07:42:45.959Z,21.07
2018-10-21T07:45:17.381Z,21.23
2018-10-21T07:47:45.619Z,21.33
2018-10-21T07:50:13.868Z,20.93
2018-10-21T07:52:42.152Z,22.87
2018-10-21T07:55:14.871Z,22.90
2018-10-21T07:57:43.076Z,21.53
2018-10-21T08:00:11.332Z,22.13
2018-10-21T08:02:39.596Z,21.53
2018-10-21T08:05:16.663Z,21.83
2018-10-21T08:07:56.385Z,20.63
2018-10-21T08:10:24.700Z,21.73
2018-10-21T08:12:52.956Z,22.20
2018-10-21T08:15:21.645Z,23.07
2018-10-21T08:17:49.977Z,21.97
2018-10-21T08:20:18.244Z,22.87
2018-10-21T08:22:46.517Z,21.83
2018-10-21T08:25:14.800Z,23.90
2018-10-21T08:27:43.116Z,25.27
2018-10-21T08:30:11.449Z,23.20
2018-10-21T08:32:39.820Z,24.00
2018-10-21T08:35:08.137Z,23.93
2018-10-21T08:37:36.461Z,23.23
2018-10-21T08:40:04.990Z,24.10
2018-10-21T08:42:33.280Z,26.67
2018-10-21T08:45:01.611Z,25.60
2018-10-21T08:47:29.949Z,26.27
2018-10-21T08:49:58.262Z,25.50
2018-10-21T08:52:26.534Z,24.67
2018-10-21T08:54:54.909Z,22.53
2018-10-21T08:57:23.243Z,22.47
2018-10-21T08:59:51.598Z,26.30
2018-10-21T09:02:20.032Z,24.63
2018-10-21T09:04:48.352Z,24.07
2018-10-21T09:07:16.902Z,24.43
2018-10-21T09:09:45.101Z,23.00
2018-10-21T09:12:13.346Z,23.77
2018-10-21T09:14:41.605Z,24.10
2018-10-21T09:17:09.872Z,24.87
2018-10-21T09:19:38.136Z,25.67
2018-10-21T09:22:06.456Z,22.30
2018-10-21T09:24:34.712Z,22.17
2018-10-21T09:27:03.068Z,22.73
2018-10-21T09:29:31.349Z,22.53
2018-10-21T09:31:59.609Z,23.20
2018-10-21T09:34:27.881Z,23.23
2018-10-21T09:36:56.238Z,23.50
2018-10-21T09:39:24.478Z,23.93
2018-10-21T09:41:52.738Z,23.23
2018-10-21T09:44:21.010Z,23.20
2018-10-21T09:46:49.310Z,24.93
2018-10-21T09:49:17.665Z,23.83
2018-10-21T09:51:45.861Z,23.97
2018-10-21T09:54:14.230Z,24.97
2018-10-21T09:56:42.497Z,24.23
2018-10-21T09:59:10.772Z,25.40
2018-10-21T10:01:44.598Z,25.40
2018-10-21T10:04:12.855Z,25.00
2018-10-21T10:06:41.155Z,25.30
2018-10-21T10:09:13.085Z,25.30
2018-10-21T10:11:42.169Z,25.43
2018-10-21T10:14:10.525Z,24.63
2018-10-21T10:16:39.033Z,24.77
2018-10-21T10:19:07.533Z,24.77
2018-10-21T10:21:36.176Z,23.53
2018-10-21T10:24:04.618Z,25.17
2018-10-21T10:26:32.988Z,26.17
2018-10-21T10:29:01.424Z,26.87
2018-10-21T10:31:29.999Z,26.97
2018-10-21T10:33:58.366Z,27.53
2018-10-21T10:36:26.834Z,27.67
2018-10-21T10:38:55.221Z,26.33
2018-10-21T10:41:23.609Z,26.83
2018-10-21T10:43:52.182Z,26.77
2018-10-21T10:46:20.514Z,25.67
2018-10-21T10:48:49.041Z,25.07
2018-10-21T10:51:21.630Z,24.00
2018-10-21T10:53:50.062Z,17.47
2018-10-21T10:56:18.365Z,16.80
2018-10-21T10:58:46.879Z,17.70
2018-10-21T11:01:15.268Z,17.30
2018-10-21T11:03:43.600Z,15.47
2018-10-21T11:06:11.976Z,11.07
2018-10-21T11:08:40.281Z,14.23
2018-10-21T11:11:08.818Z,13.90
2018-10-21T11:13:37.152Z,10.17
2018-10-21T11:16:06.090Z,10.80
2018-10-21T11:18:34.481Z,15.23
2018-10-21T11:21:03.022Z,13.57
2018-10-21T11:23:31.550Z,12.57
2018-10-21T11:25:59.891Z,12.77
2018-10-21T11:28:28.314Z,11.07
2018-10-21T11:30:56.770Z,10.83
2018-10-21T11:33:25.098Z,10.90
2018-10-21T11:35:53.426Z,12.10
2018-10-21T11:38:21.730Z,12.17
2018-10-21T11:40:50.015Z,11.50
2018-10-21T11:43:18.731Z,11.57
2018-10-21T11:45:47.066Z,9.60
2018-10-21T11:48:15.334Z,10.07
2018-10-21T11:50:43.686Z,10.97
2018-10-21T11:53:12.698Z,9.83
2018-10-21T11:55:45.073Z,9.63
2018-10-21T11:58:14.784Z,9.27
2018-10-21T12:00:44.015Z,11.20
2018-10-21T12:03:12.774Z,10.83
2018-10-21T12:05:42.215Z,8.50
2018-10-21T12:08:10.858Z,7.77
2018-10-21T12:10:39.190Z,8.30
2018-10-21T12:13:07.548Z,6.43
2018-10-21T12:15:36.722Z,6.73
2018-10-21T12:18:05.391Z,8.47
2018-10-21T12:20:34.254Z,7.00
2018-10-21T12:23:02.804Z,6.77
2018-10-21T12:25:31.160Z,5.43
2018-10-21T12:27:59.571Z,5.33
2018-10-21T12:30:27.848Z,6.70
2018-10-21T12:32:56.210Z,6.53
2018-10-21T12:35:24.550Z,7.33
2018-10-21T12:37:53.299Z,8.07
2018-10-21T12:40:21.637Z,7.40
2018-10-21T12:42:50.295Z,7.77
2018-10-21T12:45:18.683Z,7.27
2018-10-21T12:47:47.047Z,7.80
2018-10-21T12:50:15.338Z,6.60
2018-10-21T12:52:43.987Z,6.93
2018-10-21T12:55:12.357Z,7.53
2018-10-21T12:57:40.755Z,7.60
2018-10-21T13:00:10.059Z,7.60
2018-10-21T13:02:38.367Z,8.00
2018-10-21T13:05:07.403Z,8.30
2018-10-21T13:07:35.839Z,8.20
2018-10-21T13:10:04.234Z,7.73
2018-10-21T13:12:32.579Z,7.63
2018-10-21T13:15:01.091Z,8.13
2018-10-21T13:17:29.435Z,7.60
2018-10-21T13:19:57.747Z,7.23
2018-10-21T13:22:26.140Z,7.90
2018-10-21T13:24:54.467Z,8.37
2018-10-21T13:27:22.958Z,7.20
2018-10-21T13:29:53.655Z,7.13
2018-10-21T13:32:22.040Z,7.47
2018-10-21T13:34:50.324Z,7.23
2018-10-21T13:37:18.732Z,6.67
2018-10-21T13:39:47.092Z,6.93
2018-10-21T13:42:15.372Z,6.83
2018-10-21T13:44:43.692Z,7.23
2018-10-21T13:47:12.324Z,7.17
2018-10-21T13:49:40.644Z,6.37
2018-10-21T13:52:09.201Z,6.97
2018-10-21T13:54:37.568Z,6.83
2018-10-21T13:57:05.926Z,7.63
2018-10-21T13:59:34.461Z,8.03
2018-10-21T14:02:02.808Z,7.00
2018-10-21T14:04:31.118Z,7.43
2018-10-21T14:06:59.829Z,6.87
2018-10-21T14:09:28.200Z,7.60
2018-10-21T14:11:56.551Z,8.00
2018-10-21T14:14:24.833Z,7.43
2018-10-21T14:16:53.233Z,7.30
2018-10-21T14:19:21.639Z,7.10
2018-10-21T14:21:49.964Z,6.37
2018-10-21T14:24:18.428Z,6.70
2018-10-21T14:26:46.845Z,6.03
2018-10-21T14:29:15.444Z,6.20
2018-10-21T14:31:43.881Z,5.77
2018-10-21T14:34:12.296Z,6.57
2018-10-21T14:36:40.600Z,6.33
2018-10-21T14:39:10.828Z,6.07
2018-10-21T14:41:39.421Z,6.20
2018-10-21T14:44:07.750Z,5.57
2018-10-21T14:46:37.461Z,5.80
2018-10-21T14:49:06.053Z,6.00
2018-10-21T14:51:34.378Z,5.80
2018-10-21T14:54:02.744Z,5.00
2018-10-21T14:56:31.101Z,5.17
2018-10-21T14:58:59.436Z,5.30
2018-10-21T15:01:27.769Z,6.20
2018-10-21T15:03:56.266Z,6.33
2018-10-21T15:06:24.561Z,5.97
2018-10-21T15:08:53.001Z,5.47
2018-10-21T15:11:21.437Z,6.33
2018-10-21T15:13:49.861Z,10.30
2018-10-21T15:16:18.201Z,5.97
2018-10-21T15:18:46.721Z,6.47
2018-10-21T15:21:15.097Z,6.93
2018-10-21T15:23:43.505Z,6.60
2018-10-21T15:26:12.198Z,6.83
2018-10-21T15:28:40.564Z,6.63
2018-10-21T15:31:08.909Z,6.30
2018-10-21T15:33:37.253Z,6.73
2018-10-21T15:36:05.593Z,6.40
2018-10-21T15:38:34.069Z,7.00
2018-10-21T15:41:02.617Z,7.67
2018-10-21T15:43:31.321Z,6.80
2018-10-21T15:46:00.308Z,7.07
2018-10-21T15:48:29.257Z,7.17
2018-10-21T15:50:57.738Z,7.00
2018-10-21T15:53:26.166Z,7.70
2018-10-21T15:55:54.688Z,8.43
2018-10-21T15:58:23.269Z,7.07
2018-10-21T16:00:51.694Z,7.23
2018-10-21T16:03:20.126Z,5.93
2018-10-21T16:05:49.146Z,5.87
2018-10-21T16:08:17.556Z,7.03
2018-10-21T16:10:45.943Z,8.10
2018-10-21T16:13:14.422Z,10.57
2018-10-21T16:15:42.872Z,9.20
2018-10-21T16:18:11.278Z,7.73
2018-10-21T16:20:39.753Z,7.70
2018-10-21T16:23:08.490Z,10.17
2018-10-21T16:25:36.908Z,8.50
2018-10-21T16:28:05.284Z,34.37
2018-10-21T16:30:33.618Z,29.00
2018-10-21T16:33:02.083Z,19.67
2018-10-21T16:35:30.506Z,16.37
2018-10-21T16:37:58.899Z,14.83
2018-10-21T16:40:27.347Z,14.37
2018-10-21T16:42:55.804Z,14.50
2018-10-21T16:45:30.455Z,14.10
2018-10-21T16:47:59.003Z,13.23
2018-10-21T16:53:25.846Z,10.27
2018-10-21T16:55:54.050Z,10.97
2018-10-21T16:58:22.302Z,13.13
2018-10-21T17:00:53.954Z,10.13
2018-10-21T17:03:22.223Z,10.00
2018-10-21T17:05:50.488Z,10.37
2018-10-21T17:08:18.796Z,8.07
2018-10-21T17:10:47.666Z,8.17
2018-10-21T17:13:16.047Z,8.80
2018-10-21T17:15:44.300Z,8.93
2018-10-21T17:18:19.083Z,9.30
2018-10-21T17:20:47.443Z,8.50
2018-10-21T17:23:15.771Z,8.57
2018-10-21T17:25:44.090Z,10.50
2018-10-21T17:28:12.560Z,9.07
2018-10-21T17:30:40.756Z,8.97
2018-10-21T17:33:09.259Z,9.30
2018-10-21T17:35:37.575Z,9.17
2018-10-21T17:38:05.934Z,9.30
2018-10-21T17:40:34.395Z,9.83
2018-10-21T17:43:02.644Z,12.87
2018-10-21T17:45:31.064Z,15.30
2018-10-21T17:47:59.436Z,15.80
2018-10-21T17:50:27.980Z,14.93
2018-10-21T17:52:56.304Z,12.60
2018-10-21T17:55:24.633Z,11.03
2018-10-21T17:57:52.990Z,12.70
2018-10-21T18:00:21.365Z,23.27
2018-10-21T18:02:49.720Z,20.33
2018-10-21T18:05:18.055Z,13.00
2018-10-21T18:07:46.396Z,12.03
2018-10-21T18:10:14.903Z,9.97
2018-10-21T18:12:43.212Z,10.07
2018-10-21T18:15:12.087Z,12.30
2018-10-21T18:17:41.164Z,16.53
2018-10-21T18:20:11.028Z,12.27
2018-10-21T18:22:39.423Z,9.67
2018-10-21T18:25:08.805Z,9.03
2018-10-21T18:27:37.228Z,9.50
2018-10-21T18:30:05.991Z,9.60
2018-10-21T18:32:34.256Z,8.60
2018-10-21T18:35:02.879Z,8.47
2018-10-21T18:37:31.160Z,11.27
2018-10-21T18:40:15.482Z,9.00
2018-10-21T18:43:02.907Z,7.93
2018-10-21T18:45:31.232Z,8.70
2018-10-21T18:47:59.632Z,7.97
2018-10-21T18:50:27.900Z,9.10
2018-10-21T18:52:56.188Z,10.33
2018-10-21T18:55:24.832Z,10.17
2018-10-21T18:57:56.363Z,12.17
2018-10-21T19:00:24.617Z,12.53
2018-10-21T19:02:52.919Z,10.63
2018-10-21T19:08:07.718Z,11.07
2018-10-21T19:10:35.996Z,12.40
2018-10-21T19:16:45.812Z,12.97
2018-10-21T19:22:32.665Z,13.33
2018-10-21T19:25:00.992Z,13.63
2018-10-21T19:27:44.973Z,14.00
2018-10-21T19:30:14.224Z,14.87
2018-10-21T19:32:43.073Z,18.77
2018-10-21T19:35:12.824Z,34.13
2018-10-21T19:37:41.213Z,23.10
2018-10-21T19:40:11.474Z,27.67
2018-10-21T19:42:39.761Z,20.03
2018-10-21T19:45:09.180Z,19.57
2018-10-21T19:47:37.558Z,17.70
2018-10-21T19:50:07.261Z,14.30
2018-10-21T19:52:35.617Z,13.10
2018-10-21T19:55:04.484Z,13.50
2018-10-21T19:57:32.956Z,12.07
2018-10-21T20:00:01.296Z,10.67
2018-10-21T20:02:29.851Z,10.73
2018-10-21T20:04:57.817Z,13.63
2018-10-21T20:07:31.034Z,18.63
2018-10-21T20:09:59.490Z,24.07
2018-10-21T20:12:27.760Z,19.83
2018-10-21T20:14:56.103Z,19.93
2018-10-21T20:17:24.460Z,16.77
2018-10-21T20:19:52.810Z,16.43
2018-10-21T20:22:21.169Z,16.97
2018-10-21T20:24:49.510Z,15.07
2018-10-21T20:30:38.868Z,15.57
2018-10-21T20:33:07.306Z,16.67
2018-10-21T20:35:35.641Z,16.10
2018-10-21T20:38:04.175Z,16.60
2018-10-21T20:40:32.549Z,18.37
2018-10-21T20:43:00.896Z,16.87
2018-10-21T20:45:29.224Z,17.03
2018-10-21T20:47:57.656Z,16.23
2018-10-21T20:50:26.076Z,16.70
2018-10-21T20:52:54.436Z,17.73
2018-10-21T20:55:22.856Z,16.60
2018-10-21T20:57:51.195Z,15.90
2018-10-21T21:00:19.726Z,15.90
2018-10-21T21:02:48.016Z,13.50
2018-10-21T21:05:16.368Z,13.73
2018-10-21T21:07:44.728Z,14.53
2018-10-21T21:10:13.177Z,13.97
2018-10-21T21:12:41.444Z,14.37
2018-10-21T21:15:09.840Z,13.40
2018-10-21T21:17:38.189Z,13.57
2018-10-21T21:20:07.512Z,12.10
2018-10-21T21:22:35.894Z,13.17
2018-10-21T21:25:04.980Z,13.47
2018-10-21T21:27:33.329Z,13.00
2018-10-21T21:30:01.757Z,13.50
2018-10-21T21:32:30.050Z,14.00
2018-10-21T21:34:58.593Z,16.57
2018-10-21T21:37:27.030Z,15.07
2018-10-21T21:39:55.778Z,12.97
2018-10-21T21:42:24.169Z,13.07
2018-10-21T21:44:55.633Z,13.80
2018-10-21T21:47:24.050Z,12.70
2018-10-21T21:49:52.412Z,12.43
2018-10-21T21:52:20.754Z,11.03
2018-10-21T21:54:49.158Z,10.63
2018-10-21T21:57:17.516Z,11.07
2018-10-21T21:59:45.861Z,11.10
2018-10-21T22:02:14.235Z,10.80
2018-10-21T22:04:42.608Z,11.37
2018-10-21T22:07:11.002Z,10.50
2018-10-21T22:09:39.356Z,12.07
2018-10-21T22:12:07.963Z,12.13
2018-10-21T22:14:36.285Z,12.57
2018-10-21T22:17:04.742Z,12.30
2018-10-21T22:19:33.040Z,12.13
2018-10-21T22:22:01.403Z,11.77
2018-10-21T22:24:29.671Z,11.53
2018-10-21T22:26:57.925Z,12.53
2018-10-21T22:29:26.229Z,12.40
2018-10-21T22:31:54.502Z,12.50
2018-10-21T22:34:22.763Z,13.33
2018-10-21T22:36:51.166Z,12.73
2018-10-21T22:39:19.418Z,12.93
2018-10-21T22:41:47.708Z,12.47
2018-10-21T22:44:15.966Z,12.53
2018-10-21T22:46:44.310Z,12.17
2018-10-21T22:49:12.535Z,12.67
2018-10-21T22:51:40.800Z,11.53
2018-10-21T22:54:09.101Z,12.83
2018-10-21T22:56:37.329Z,11.93
2018-10-21T22:59:05.742Z,11.87
2018-10-21T23:01:33.987Z,12.30
2018-10-21T23:04:02.380Z,11.43
2018-10-21T23:06:30.606Z,11.30
2018-10-21T23:08:58.831Z,11.53
2018-10-21T23:11:27.088Z,11.23
2018-10-21T23:13:55.333Z,11.60
2018-10-21T23:16:23.613Z,11.33
2018-10-21T23:19:03.640Z,11.20
2018-10-21T23:21:31.900Z,11.33
2018-10-21T23:24:00.192Z,11.43
2018-10-21T23:26:28.411Z,11.40
2018-10-21T23:28:56.688Z,10.90
2018-10-21T23:31:24.932Z,11.67
2018-10-21T23:33:53.219Z,11.70
2018-10-21T23:36:21.527Z,11.37
2018-10-21T23:38:49.796Z,11.27
2018-10-21T23:41:18.067Z,11.57
2018-10-21T23:43:46.318Z,11.60
2018-10-21T23:46:14.720Z,11.50
2018-10-21T23:48:42.962Z,12.27
2018-10-21T23:51:11.223Z,11.27
2018-10-21T23:53:39.502Z,11.57
2018-10-21T23:56:07.770Z,11.57
2018-10-21T23:58:36.135Z,11.67
